Manchester Airport

EGCC · 英格兰, 英国

罗盘
风向 的 风向 040° 曼彻斯特机场 5L/23R
风: 6 kt, 2 beaufort

6 kt

1 kt
改变
0 1.000 2.000 3.000 4.000 5.000
BKN 2.400 ft
BKN 3.200 ft
METAR EGCC 041450Z AUTO 04006KT 9999 BKN024 BKN032 06/03 Q1019 NOSIG

METAR 曼彻斯特机场 - EGCC/MAN

曼彻斯特机场是,英国中的大型机场。 该机场有2条跑道: 5L/23R 和 5R/23L. 该领域的国际民航组织标志是EGCC 它的国际航空运输协会代码是MAN.

这份报告是针对2022年12月4日 14:50, 当地时间在曼彻斯特机场进行的。

机场观察

风向为040°,速度为6 kt。

可见度为10 km 或者更多。

有碎云在2.400 ft的高度 和 碎云在3.200 ft的高度。 破损或更高的上限为2.400 ft。

温度为6 °C,阵风为2 °C。 露点为3 °C,相对湿度为81%。 海平面上的气压为1019 hPa (QNH)。

白天

今天,太阳从08:05升起,在15:53降落。 这适用于曼彻斯特机场,世界夏令时可能有所不同。 当地时间与世界标准时间之间的时差为+0 小时。 当前,没有夏令时有效。

公司介绍

我们没有关于这个机场的公司信息。

体会

到Vliegles.nl去找飞行课程,跳伞和其他飞行体验。 浏览页面,了解曼彻斯特机场附近所有可用的活动。 你也可以使用搜索功能来寻找你所在地附近的特定飞行课程、跳伞或其他飞行体验。

跑道

Id 标题 侧风 逆风 侧风 %
5L/23R 052°-232° 1 kt 6 kt 21 %
5R/23L 051°-231° 1 kt 6 kt 19 %

逆风成分最大的方向会被突出显示,并用于横风计算。 这并不一定意味着这个方向在使用。

乌云

2.400 ft BKN 碎云
3.200 ft BKN 碎云

温度 & 天气

温度 6 °C
露点 3 °C
相对湿度 81%
风寒 2 °C
Kp-index 0 (0-9)

白天

日出
08:05
中午
11:59
日落
15:53 (37m)

小工具

你想在你的网站上有一个关于曼彻斯特机场的当前航空天气(METAR)的小部件吗?

显示HTML代码

我们和第三方通过cookies跟踪您在我们网站上的互联网行为。如果你继续,我们认为你同意我们的饼干政策